Time;durP1;ratioP1;P1;durP2;ratioP2;P2;SDS_P1;SDS_P2;PMS_P1;PMS_P2;Temp;Humidity;BMP_temperature;BMP_pressure;BME280_temperature;BME280_humidity;BME280_pressure;Samples;Min_cycle;Max_cycle;Signal;HPM_P1;HPM_P2
2021/04/07 00:40:35;;;;;;;3.63;1.30;;;0.00;99.90;;;;;;5035817;28;20080;-86
2021/04/07 00:43:02;;;;;;;3.17;1.20;;;0.00;99.90;;;;;;5034673;28;20059;-86
2021/04/07 00:45:28;;;;;;;4.10;1.30;;;0.00;99.90;;;;;;5029471;28;20014;-87
2021/04/07 00:47:55;;;;;;;2.60;1.30;;;-0.10;99.90;;;;;;5034736;28;20017;-87
2021/04/07 00:50:23;;;;;;;4.97;1.50;;;0.00;99.90;;;;;;5030981;28;20528;-86
2021/04/07 00:52:50;;;;;;;4.20;1.50;;;0.00;99.90;;;;;;5036522;28;20166;-85
2021/04/07 00:55:18;;;;;;;4.63;1.33;;;-0.10;99.90;;;;;;5034644;28;20048;-87
2021/04/07 00:57:45;;;;;;;3.07;1.47;;;0.00;99.90;;;;;;5034671;28;20024;-86
2021/04/07 01:00:12;;;;;;;4.70;1.60;;;0.00;99.90;;;;;;5034670;28;20017;-84
2021/04/07 01:02:41;;;;;;;3.77;1.50;;;0.00;99.90;;;;;;5025823;28;20077;-87
2021/04/07 01:05:08;;;;;;;4.47;1.47;;;0.00;99.90;;;;;;5029947;28;20022;-87
2021/04/07 01:07:35;;;;;;;4.40;1.73;;;0.00;99.90;;;;;;5034446;28;20025;-87
2021/04/07 01:10:01;;;;;;;5.27;1.60;;;0.00;99.90;;;;;;5034010;28;20035;-88
2021/04/07 01:12:27;;;;;;;7.83;2.33;;;-0.10;99.90;;;;;;5033876;28;20021;-84
2021/04/07 01:14:52;;;;;;;4.77;1.93;;;-0.10;99.90;;;;;;5031566;28;20017;-87
2021/04/07 01:17:19;;;;;;;6.10;1.80;;;-0.10;99.90;;;;;;5030616;28;20034;-84
2021/04/07 01:19:45;;;;;;;5.27;1.80;;;-0.10;99.90;;;;;;5033871;28;20060;-88
2021/04/07 01:22:13;;;;;;;3.23;1.60;;;-0.10;99.90;;;;;;5034662;28;20067;-86
2021/04/07 01:24:39;;;;;;;5.13;1.50;;;-0.10;99.90;;;;;;5033814;28;20025;-87
2021/04/07 01:27:05;;;;;;;6.50;1.87;;;0.00;99.90;;;;;;5033715;28;20079;-87
2021/04/07 01:29:31;;;;;;;3.07;1.30;;;-0.10;99.90;;;;;;5035145;28;20036;-87
2021/04/07 01:31:57;;;;;;;3.43;1.50;;;-0.10;99.90;;;;;;5022532;28;20025;-87
2021/04/07 01:34:28;;;;;;;3.17;1.57;;;-0.20;99.90;;;;;;5035573;28;20033;-87
2021/04/07 01:36:54;;;;;;;5.77;1.80;;;-0.20;99.90;;;;;;5030579;28;20057;-87
2021/04/07 01:39:21;;;;;;;3.57;1.73;;;-0.20;99.90;;;;;;5034112;28;20033;-86
2021/04/07 01:41:48;;;;;;;9.57;1.70;;;-0.20;99.90;;;;;;5034312;28;20067;-87
2021/04/07 01:44:15;;;;;;;5.00;2.27;;;-0.10;99.90;;;;;;5033912;28;20071;-87
2021/04/07 01:46:41;;;;;;;5.97;1.73;;;-0.20;99.90;;;;;;5032836;28;20022;-87
2021/04/07 01:49:09;;;;;;;4.47;2.07;;;-0.20;99.90;;;;;;5028581;28;20022;-87
2021/04/07 01:51:35;;;;;;;7.17;1.77;;;-0.30;99.90;;;;;;5032818;28;20497;-85
2021/04/07 01:54:06;;;;;;;3.40;1.87;;;-0.30;99.90;;;;;;5024734;28;20029;-86
2021/04/07 01:56:31;;;;;;;5.27;1.77;;;-0.30;99.90;;;;;;5033369;28;20037;-87
2021/04/07 01:59:04;;;;;;;5.93;1.87;;;-0.30;99.90;;;;;;5027978;28;20032;-87
2021/04/07 02:01:29;;;;;;;5.95;1.95;;;-0.40;99.90;;;;;;5033181;28;20056;-87
2021/04/07 02:03:55;;;;;;;3.97;1.87;;;-0.30;99.90;;;;;;5022189;28;20029;-86
2021/04/07 02:06:21;;;;;;;7.50;2.10;;;-0.30;99.90;;;;;;5036240;28;20018;-86
2021/04/07 02:08:47;;;;;;;5.40;2.63;;;-0.30;99.90;;;;;;5035382;28;20021;-86
2021/04/07 02:11:14;;;;;;;3.63;1.77;;;-0.30;99.90;;;;;;5044036;28;20036;-85
2021/04/07 02:13:39;;;;;;;5.43;2.30;;;-0.30;99.90;;;;;;5052797;28;20033;-85
2021/04/07 02:16:16;;;;;;;5.23;2.23;;;-0.40;99.90;;;;;;5045311;28;20025;-85
2021/04/07 02:18:43;;;;;;;6.10;2.63;;;-0.40;99.90;;;;;;5056133;28;20159;-85
2021/04/07 02:21:10;;;;;;;9.53;3.00;;;-0.40;99.90;;;;;;5043315;28;20102;-87
2021/04/07 02:23:36;;;;;;;6.53;2.93;;;-0.40;99.90;;;;;;5039069;28;20025;-87
2021/04/07 02:26:04;;;;;;;7.50;3.10;;;-0.50;99.90;;;;;;5034903;28;20028;-87
2021/04/07 02:28:30;;;;;;;8.00;2.63;;;-0.50;99.90;;;;;;5037389;28;20025;-87
2021/04/07 02:30:55;;;;;;;6.63;2.90;;;-0.50;99.90;;;;;;5037355;28;20085;-87
2021/04/07 02:33:21;;;;;;;7.10;2.90;;;-0.50;99.90;;;;;;5037107;28;20481;-87
2021/04/07 02:35:47;;;;;;;4.63;2.70;;;-0.50;99.90;;;;;;5038031;28;20026;-88
2021/04/07 02:38:14;;;;;;;6.23;2.80;;;-0.50;99.90;;;;;;5032535;28;20037;-87
2021/04/07 02:40:40;;;;;;;7.50;3.07;;;-0.50;99.90;;;;;;5033527;28;20037;-87
2021/04/07 02:43:06;;;;;;;11.87;3.17;;;-0.50;99.90;;;;;;5032800;28;20056;-87
2021/04/07 02:45:32;;;;;;;6.37;2.60;;;-0.60;99.90;;;;;;5032895;28;20081;-86
2021/04/07 02:47:57;;;;;;;6.33;2.90;;;-0.60;99.90;;;;;;5034047;28;20034;-87
2021/04/07 02:50:23;;;;;;;5.10;2.37;;;-0.60;99.90;;;;;;5036689;28;20025;-87
2021/04/07 02:52:49;;;;;;;4.50;2.30;;;-0.60;99.90;;;;;;5036546;28;20537;-87
2021/04/07 02:55:15;;;;;;;5.07;2.57;;;-0.60;99.90;;;;;;5034572;28;20072;-87
2021/04/07 02:57:41;;;;;;;7.93;2.80;;;-0.60;99.90;;;;;;5034803;28;20363;-87
2021/04/07 03:00:08;;;;;;;7.23;2.53;;;-0.60;99.90;;;;;;5035195;28;20730;-87
2021/04/07 03:02:33;;;;;;;8.20;2.93;;;-0.60;99.90;;;;;;5031373;28;20056;-87
2021/04/07 03:04:59;;;;;;;6.87;2.70;;;-0.60;99.90;;;;;;5032887;28;20433;-86
2021/04/07 03:07:25;;;;;;;5.67;2.57;;;-0.70;99.90;;;;;;5031809;28;20029;-87
2021/04/07 03:09:51;;;;;;;6.17;2.87;;;-0.60;99.90;;;;;;5033306;28;20033;-87
2021/04/07 03:12:17;;;;;;;7.43;3.10;;;-0.60;99.90;;;;;;5032871;28;20113;-86
2021/04/07 03:14:43;;;;;;;6.33;2.67;;;-0.50;99.90;;;;;;5030090;28;20028;-87
2021/04/07 03:17:09;;;;;;;8.43;3.03;;;-0.50;99.90;;;;;;5032285;28;20382;-87
2021/04/07 03:19:35;;;;;;;5.57;2.63;;;-0.50;99.90;;;;;;5032411;28;20029;-86
2021/04/07 03:22:01;;;;;;;5.83;2.67;;;-0.40;99.90;;;;;;5028429;28;20120;-86
2021/04/07 03:24:26;;;;;;;7.63;2.80;;;-0.30;99.90;;;;;;5034138;28;20466;-87
2021/04/07 03:26:52;;;;;;;5.77;2.63;;;-0.30;99.90;;;;;;5035973;28;20044;-87
2021/04/07 03:29:18;;;;;;;6.40;2.47;;;-0.30;99.90;;;;;;5038310;28;20029;-85
2021/04/07 03:31:43;;;;;;;6.10;2.80;;;-0.30;99.90;;;;;;5036537;28;20163;-86
2021/04/07 03:34:09;;;;;;;7.07;2.27;;;-0.30;99.90;;;;;;5034840;28;20351;-86
2021/04/07 03:36:35;;;;;;;7.30;2.47;;;-0.20;99.90;;;;;;5036257;28;20631;-87
2021/04/07 03:39:00;;;;;;;4.20;2.33;;;-0.30;99.90;;;;;;5034636;28;20040;-87
2021/04/07 03:41:26;;;;;;;5.30;2.43;;;-0.20;99.90;;;;;;5036002;28;20018;-87
2021/04/07 03:43:51;;;;;;;7.03;2.23;;;-0.20;99.90;;;;;;5036042;28;20175;-86
2021/04/07 03:46:17;;;;;;;6.07;2.23;;;-0.20;99.90;;;;;;5035725;28;20466;-87
2021/04/07 03:48:43;;;;;;;6.50;2.40;;;-0.20;99.90;;;;;;5036473;28;20064;-88
2021/04/07 03:51:09;;;;;;;5.10;2.13;;;-0.20;99.90;;;;;;5035590;28;20022;-87
2021/04/07 03:53:35;;;;;;;6.03;1.90;;;-0.20;99.90;;;;;;5035109;28;20128;-87
2021/04/07 03:56:01;;;;;;;4.30;2.20;;;-0.20;99.90;;;;;;5028205;28;20041;-87
2021/04/07 03:58:27;;;;;;;6.43;2.50;;;-0.20;99.90;;;;;;5026735;28;20064;-88
2021/04/07 04:00:54;;;;;;;7.73;2.27;;;-0.20;99.90;;;;;;5032364;28;20018;-87
2021/04/07 04:03:23;;;;;;;6.97;2.50;;;-0.20;99.90;;;;;;5032677;28;20443;-86
2021/04/07 04:05:48;;;;;;;7.00;2.20;;;-0.10;99.90;;;;;;5033021;28;20033;-87
2021/04/07 04:08:14;;;;;;;4.77;2.43;;;-0.10;99.90;;;;;;5030141;28;20018;-87
2021/04/07 04:10:40;;;;;;;4.60;2.10;;;-0.20;99.90;;;;;;5034480;28;20025;-87
2021/04/07 04:13:06;;;;;;;5.03;2.40;;;-0.20;99.90;;;;;;5024331;28;20108;-87
2021/04/07 04:15:33;;;;;;;5.47;1.97;;;-0.10;99.90;;;;;;5031807;28;20051;-87
2021/04/07 04:17:59;;;;;;;6.17;2.23;;;-0.20;99.90;;;;;;5031251;28;20041;-87
2021/04/07 04:20:25;;;;;;;5.10;2.07;;;-0.20;99.90;;;;;;5035263;28;20108;-86
2021/04/07 04:22:51;;;;;;;5.17;2.10;;;-0.10;99.90;;;;;;5032369;28;20049;-87
2021/04/07 04:25:19;;;;;;;5.97;2.10;;;-0.10;99.90;;;;;;5034920;28;20032;-87
2021/04/07 04:27:45;;;;;;;4.80;1.97;;;-0.10;99.90;;;;;;5034154;28;20028;-87
2021/04/07 04:30:13;;;;;;;3.90;1.87;;;-0.10;99.90;;;;;;5034278;28;20013;-87
2021/04/07 04:32:39;;;;;;;5.90;1.90;;;-0.10;99.90;;;;;;5026429;28;20057;-86
2021/04/07 04:35:06;;;;;;;7.83;2.23;;;-0.10;99.90;;;;;;5029692;28;20071;-86
2021/04/07 04:37:31;;;;;;;2.60;1.50;;;-0.10;99.90;;;;;;5031188;28;20034;-87
2021/04/07 04:39:57;;;;;;;5.57;1.80;;;-0.10;99.90;;;;;;5025885;28;20498;-87
2021/04/07 04:42:23;;;;;;;4.03;1.83;;;-0.10;99.90;;;;;;5027990;28;20026;-86
2021/04/07 04:44:49;;;;;;;5.03;1.73;;;-0.10;99.90;;;;;;5034562;28;20052;-87
2021/04/07 04:47:14;;;;;;;4.53;1.90;;;-0.20;99.90;;;;;;5033200;28;20014;-86
2021/04/07 04:49:40;;;;;;;4.23;1.73;;;-0.20;99.90;;;;;;5033885;28;20040;-87
2021/04/07 04:52:06;;;;;;;4.70;1.90;;;-0.20;99.90;;;;;;5033972;28;20076;-86
2021/04/07 04:54:31;;;;;;;4.70;1.77;;;-0.20;99.90;;;;;;5032465;28;20084;-87
2021/04/07 04:56:57;;;;;;;3.93;1.53;;;-0.10;99.90;;;;;;5034976;28;20033;-86
2021/04/07 04:59:23;;;;;;;3.70;1.40;;;-0.20;99.90;;;;;;5034514;28;20057;-85
2021/04/07 05:01:49;;;;;;;3.47;1.50;;;-0.20;99.90;;;;;;5036718;28;20071;-87
2021/04/07 05:04:14;;;;;;;4.10;1.50;;;-0.20;99.90;;;;;;5042058;28;20390;-87
2021/04/07 05:06:40;;;;;;;3.10;1.23;;;-0.20;99.90;;;;;;5033657;28;20367;-87
2021/04/07 05:09:06;;;;;;;4.97;1.50;;;-0.10;99.90;;;;;;5035648;28;20478;-87
2021/04/07 05:11:32;;;;;;;3.80;1.40;;;-0.10;99.90;;;;;;5035868;28;20047;-86
2021/04/07 05:14:02;;;;;;;4.93;1.53;;;-0.10;99.90;;;;;;5026566;28;20020;-86
2021/04/07 05:16:29;;;;;;;4.53;1.63;;;-0.10;99.90;;;;;;5029151;28;20056;-86
2021/04/07 05:18:55;;;;;;;2.93;1.13;;;-0.10;99.90;;;;;;5020273;28;20048;-87
2021/04/07 05:21:21;;;;;;;3.70;1.33;;;-0.10;99.90;;;;;;5031368;28;20021;-87
2021/04/07 05:23:46;;;;;;;4.07;1.17;;;-0.10;99.90;;;;;;5022548;28;20390;-87
2021/04/07 05:26:12;;;;;;;4.20;1.07;;;-0.10;99.90;;;;;;5023852;28;20022;-87
2021/04/07 05:28:42;;;;;;;3.67;1.20;;;-0.10;99.90;;;;;;5025193;28;20427;-86
2021/04/07 05:31:11;;;;;;;2.70;1.10;;;-0.10;99.90;;;;;;5019667;28;20022;-87
2021/04/07 05:33:38;;;;;;;2.67;1.30;;;-0.10;99.90;;;;;;5024010;28;20398;-87
2021/04/07 05:36:07;;;;;;;5.40;1.30;;;-0.10;99.90;;;;;;5026231;28;20064;-87
2021/04/07 05:38:33;;;;;;;6.27;1.47;;;0.00;99.90;;;;;;5025670;28;20083;-86
2021/04/07 05:40:59;;;;;;;4.27;1.20;;;0.00;99.90;;;;;;5031142;28;20534;-87
2021/04/07 05:43:26;;;;;;;3.60;1.17;;;0.00;99.90;;;;;;5030200;28;20025;-87
2021/04/07 05:45:52;;;;;;;5.57;1.70;;;0.00;99.90;;;;;;5031964;28;20014;-86
2021/04/07 05:48:18;;;;;;;5.33;1.50;;;-0.10;99.90;;;;;;5031212;28;20481;-87
2021/04/07 05:50:48;;;;;;;5.27;1.60;;;-0.20;99.90;;;;;;5031743;28;20385;-87
2021/04/07 05:53:14;;;;;;;3.30;1.20;;;-0.20;99.90;;;;;;5030117;28;20549;-86
2021/04/07 05:55:48;;;;;;;4.30;1.47;;;-0.20;99.90;;;;;;5030502;28;20038;-86
2021/04/07 05:58:14;;;;;;;5.93;1.60;;;-0.10;99.90;;;;;;5023735;28;20032;-87
2021/04/07 06:00:41;;;;;;;6.13;1.17;;;0.00;99.90;;;;;;5018840;28;20072;-87
2021/04/07 06:03:07;;;;;;;3.40;1.30;;;0.00;99.90;;;;;;5030118;28;20025;-86
2021/04/07 06:05:38;;;;;;;5.57;1.77;;;0.00;99.90;;;;;;5031416;28;20470;-87
2021/04/07 06:08:05;;;;;;;4.20;1.53;;;0.00;99.90;;;;;;5023427;28;20060;-87
2021/04/07 06:10:31;;;;;;;5.50;1.70;;;0.00;99.90;;;;;;5030587;28;20033;-87
2021/04/07 06:12:58;;;;;;;6.00;1.30;;;0.00;99.90;;;;;;5030323;28;20052;-87
2021/04/07 06:15:24;;;;;;;3.70;1.27;;;0.00;99.90;;;;;;5027595;28;20966;-87
2021/04/07 06:17:55;;;;;;;3.87;1.33;;;0.00;99.90;;;;;;5030443;28;20026;-88
2021/04/07 06:20:22;;;;;;;4.57;1.03;;;0.00;99.90;;;;;;5030216;28;20025;-87
2021/04/07 06:22:48;;;;;;;6.93;1.30;;;0.10;99.90;;;;;;5029336;28;20022;-87
2021/04/07 06:25:15;;;;;;;7.83;1.17;;;0.10;99.90;;;;;;5023869;28;20028;-87
2021/04/07 06:27:40;;;;;;;4.10;1.13;;;0.10;99.90;;;;;;5028712;28;20059;-87
2021/04/07 06:30:07;;;;;;;6.07;1.07;;;0.20;99.90;;;;;;5023992;28;20464;-87
2021/04/07 06:32:33;;;;;;;6.03;1.73;;;0.30;99.90;;;;;;5022426;28;20020;-87
2021/04/07 06:34:59;;;;;;;3.77;1.10;;;0.20;99.90;;;;;;5027051;28;20504;-87
2021/04/07 06:37:25;;;;;;;3.67;1.30;;;0.20;99.90;;;;;;5029385;28;20069;-87
2021/04/07 06:39:51;;;;;;;3.77;1.40;;;0.30;99.90;;;;;;5028706;28;20033;-86
2021/04/07 06:42:17;;;;;;;4.93;1.20;;;0.30;99.90;;;;;;5030756;28;20109;-86
2021/04/07 06:44:44;;;;;;;7.03;1.33;;;0.40;99.90;;;;;;5035253;28;20025;-87
2021/04/07 06:47:11;;;;;;;7.87;1.27;;;0.50;99.90;;;;;;5028493;28;20029;-86
2021/04/07 06:49:41;;;;;;;3.03;1.27;;;0.60;99.90;;;;;;5028157;28;21436;-86
2021/04/07 06:52:11;;;;;;;5.40;0.93;;;0.70;99.90;;;;;;5029287;28;20132;-86
2021/04/07 06:54:37;;;;;;;5.27;1.20;;;0.60;99.90;;;;;;5025685;28;20026;-86
2021/04/07 06:57:03;;;;;;;6.77;1.30;;;0.80;99.90;;;;;;5031445;28;20022;-86
2021/04/07 06:59:30;;;;;;;5.90;1.40;;;0.90;99.90;;;;;;5029116;28;20393;-87
2021/04/07 07:01:55;;;;;;;3.67;1.10;;;1.20;99.90;;;;;;5033711;28;20033;-85
2021/04/07 07:04:21;;;;;;;4.57;1.10;;;1.30;99.90;;;;;;5028865;28;20024;-85
2021/04/07 07:06:54;;;;;;;3.57;1.10;;;1.60;99.90;;;;;;5022908;28;20025;-84
2021/04/07 07:09:20;;;;;;;7.83;1.20;;;1.70;99.90;;;;;;5033685;28;20060;-83
2021/04/07 07:11:50;;;;;;;4.27;1.10;;;1.70;99.90;;;;;;5033107;28;20095;-85
2021/04/07 07:14:18;;;;;;;7.93;1.10;;;1.70;99.90;;;;;;5032584;28;20032;-85
2021/04/07 07:16:49;;;;;;;5.17;0.90;;;1.50;99.90;;;;;;5028179;28;20049;-85
2021/04/07 07:19:26;;;;;;;3.97;0.90;;;1.50;99.90;;;;;;5030275;28;20026;-85
2021/04/07 07:22:03;;;;;;;3.27;0.90;;;1.40;99.90;;;;;;5027987;28;20102;-84
2021/04/07 07:24:32;;;;;;;5.60;0.97;;;1.30;99.90;;;;;;5025648;28;20036;-84
2021/04/07 07:27:00;;;;;;;3.60;1.30;;;1.20;99.90;;;;;;5030964;28;20018;-86
2021/04/07 07:29:31;;;;;;;5.67;0.87;;;1.10;99.90;;;;;;5027821;28;20025;-86
2021/04/07 07:32:09;;;;;;;3.00;0.90;;;1.10;99.90;;;;;;5032718;28;20033;-85
2021/04/07 07:34:35;;;;;;;3.07;0.83;;;1.10;99.90;;;;;;5029314;28;20025;-85
2021/04/07 07:37:03;;;;;;;3.97;0.80;;;1.20;99.90;;;;;;5032932;28;20478;-84
2021/04/07 07:39:36;;;;;;;2.17;0.80;;;1.40;99.90;;;;;;5034106;28;20521;-85
2021/04/07 07:42:10;;;;;;;3.07;1.00;;;1.50;99.90;;;;;;5031123;28;20090;-85
2021/04/07 07:44:39;;;;;;;4.17;0.90;;;1.70;99.90;;;;;;5040956;28;20017;-86
2021/04/07 07:47:26;;;;;;;4.97;1.07;;;1.80;99.90;;;;;;5030947;28;20028;-86
2021/04/07 07:50:04;;;;;;;8.67;1.30;;;2.00;99.90;;;;;;5030398;28;20083;-85
2021/04/07 07:52:37;;;;;;;4.27;0.80;;;2.30;99.90;;;;;;5030558;28;20034;-83
2021/04/07 07:55:15;;;;;;;4.83;0.83;;;2.20;99.90;;;;;;5031773;28;20030;-85
2021/04/07 07:57:54;;;;;;;4.47;1.00;;;2.20;99.90;;;;;;5035070;28;20021;-85
2021/04/07 08:00:22;;;;;;;2.50;1.00;;;2.10;99.90;;;;;;5030875;28;20022;-83
2021/04/07 08:02:47;;;;;;;4.63;1.00;;;2.10;99.90;;;;;;5031965;28;20399;-85
2021/04/07 08:05:17;;;;;;;2.43;1.00;;;1.80;99.90;;;;;;5035838;28;20147;-84
2021/04/07 08:07:43;;;;;;;4.43;1.00;;;1.80;99.90;;;;;;5035462;28;20022;-84
2021/04/07 08:10:13;;;;;;;3.90;0.87;;;1.70;99.90;;;;;;5035354;28;20210;-84
2021/04/07 08:12:41;;;;;;;2.30;0.90;;;1.60;99.90;;;;;;5030031;28;20389;-84
2021/04/07 08:15:11;;;;;;;2.87;0.80;;;1.50;99.90;;;;;;5033343;28;20075;-86
2021/04/07 08:17:37;;;;;;;5.37;1.20;;;1.40;99.90;;;;;;5032939;28;20032;-85
2021/04/07 08:20:07;;;;;;;5.17;1.10;;;1.40;99.90;;;;;;5032563;28;20439;-85
2021/04/07 08:22:34;;;;;;;6.27;1.13;;;1.50;99.90;;;;;;5037745;28;20026;-83
2021/04/07 08:25:05;;;;;;;5.53;1.37;;;1.60;99.90;;;;;;5039578;28;20045;-84
2021/04/07 08:27:36;;;;;;;6.33;1.57;;;1.60;99.90;;;;;;5034237;28;20104;-85
2021/04/07 08:30:03;;;;;;;4.33;1.10;;;1.80;99.90;;;;;;5035653;28;20025;-85
2021/04/07 08:32:29;;;;;;;4.63;0.90;;;2.00;99.90;;;;;;5041404;28;20549;-82
2021/04/07 08:34:55;;;;;;;5.17;1.10;;;2.00;99.90;;;;;;5036088;28;20056;-85
2021/04/07 08:37:27;;;;;;;2.57;1.07;;;2.10;99.90;;;;;;5029231;28;20391;-84
2021/04/07 08:39:54;;;;;;;3.28;0.85;;;2.00;99.90;;;;;;5031486;28;20033;-83
2021/04/07 08:42:22;;;;;;;5.30;1.50;;;2.10;99.90;;;;;;5037800;28;20060;-82
2021/04/07 08:44:49;;;;;;;7.90;1.67;;;2.10;99.90;;;;;;5037693;28;20037;-82
2021/04/07 08:47:25;;;;;;;4.73;1.00;;;2.10;99.90;;;;;;5038277;28;20029;-83
2021/04/07 08:50:07;;;;;;;3.40;1.07;;;2.20;99.90;;;;;;5036004;28;20017;-83
2021/04/07 08:52:53;;;;;;;1.40;0.60;;;2.10;99.90;;;;;;5033529;28;20493;-82
2021/04/07 08:55:23;;;;;;;4.10;1.00;;;2.00;99.90;;;;;;5033728;28;20041;-81
2021/04/07 08:58:04;;;;;;;5.90;1.20;;;2.10;99.90;;;;;;5035985;28;20033;-86
2021/04/07 09:00:32;;;;;;;3.37;0.97;;;2.10;99.90;;;;;;5033158;28;20132;-85
2021/04/07 09:03:24;;;;;;;1.77;0.80;;;2.40;99.90;;;;;;5034569;28;20041;-84
2021/04/07 09:05:51;;;;;;;4.20;1.05;;;2.80;99.90;;;;;;5035595;28;20037;-85
2021/04/07 09:08:18;;;;;;;5.23;1.10;;;3.20;99.90;;;;;;5037215;28;20037;-83
2021/04/07 09:10:45;;;;;;;3.10;0.87;;;3.10;99.90;;;;;;5037184;28;20025;-86
2021/04/07 09:13:16;;;;;;;3.10;0.80;;;3.00;99.90;;;;;;5041432;28;20017;-84
2021/04/07 09:15:46;;;;;;;4.43;1.40;;;2.60;99.90;;;;;;5035766;28;20547;-84
2021/04/07 09:18:11;;;;;;;4.33;1.30;;;2.50;99.90;;;;;;5032445;28;20033;-84
2021/04/07 09:20:42;;;;;;;3.77;1.33;;;2.50;99.90;;;;;;5039206;28;20025;-83
2021/04/07 09:23:10;;;;;;;5.53;1.47;;;2.50;99.90;;;;;;5034743;28;20036;-83
2021/04/07 09:25:37;;;;;;;2.50;0.97;;;2.50;99.90;;;;;;5037769;28;20021;-82
2021/04/07 09:28:07;;;;;;;4.43;1.23;;;2.60;99.90;;;;;;5034149;28;20072;-83
2021/04/07 09:30:47;;;;;;;3.80;1.13;;;2.60;99.90;;;;;;5040515;28;20081;-83
2021/04/07 09:33:19;;;;;;;3.50;1.10;;;2.40;99.90;;;;;;5042327;28;20032;-87
2021/04/07 09:35:55;;;;;;;5.18;1.20;;;2.30;99.90;;;;;;5034778;28;20057;-86
2021/04/07 09:38:21;;;;;;;4.83;1.30;;;2.40;99.90;;;;;;5033762;28;20037;-86
2021/04/07 09:40:48;;;;;;;4.53;1.50;;;2.40;99.90;;;;;;5035290;28;20079;-85
2021/04/07 09:43:16;;;;;;;3.87;1.10;;;2.60;99.90;;;;;;5036021;28;20021;-85
2021/04/07 09:45:49;;;;;;;2.73;1.10;;;2.60;99.90;;;;;;5038190;28;20056;-85
2021/04/07 09:48:14;;;;;;;3.70;1.00;;;2.60;99.90;;;;;;5032443;28;20198;-85
2021/04/07 09:50:40;;;;;;;3.50;1.20;;;2.70;99.90;;;;;;5034872;28;20121;-87
2021/04/07 09:53:06;;;;;;;2.57;0.93;;;2.80;99.90;;;;;;5033700;28;20045;-84
2021/04/07 09:55:31;;;;;;;3.40;1.03;;;2.80;99.90;;;;;;5034888;28;20032;-86
2021/04/07 09:58:02;;;;;;;2.67;1.03;;;2.90;99.90;;;;;;5034837;28;20040;-85
2021/04/07 10:00:33;;;;;;;4.60;0.80;;;3.30;99.90;;;;;;5030375;28;20075;-84
2021/04/07 10:03:02;;;;;;;3.30;1.20;;;3.40;99.10;;;;;;5026878;28;20025;-85
2021/04/07 10:05:32;;;;;;;2.30;0.80;;;3.90;99.90;;;;;;5035808;28;20111;-86
2021/04/07 10:08:23;;;;;;;3.63;1.10;;;4.30;95.80;;;;;;5034032;28;20083;-84
2021/04/07 10:10:49;;;;;;;2.27;0.90;;;4.50;94.00;;;;;;5040025;28;20025;-85
2021/04/07 10:13:16;;;;;;;2.50;0.87;;;4.60;93.50;;;;;;5040278;28;20048;-85
2021/04/07 10:15:42;;;;;;;4.13;0.90;;;4.50;93.50;;;;;;5038035;28;20025;-85
2021/04/07 10:18:13;;;;;;;3.97;0.90;;;4.50;92.90;;;;;;5034457;28;20037;-84
2021/04/07 10:20:39;;;;;;;3.37;1.10;;;4.50;93.00;;;;;;5036608;28;20027;-84
2021/04/07 10:23:09;;;;;;;2.77;0.60;;;4.40;92.80;;;;;;5037069;28;20052;-84
2021/04/07 10:25:36;;;;;;;4.60;0.83;;;4.20;92.20;;;;;;5032269;28;20072;-84
2021/04/07 10:28:03;;;;;;;4.03;1.10;;;4.10;93.00;;;;;;5034823;28;20292;-85
2021/04/07 10:30:41;;;;;;;5.93;1.17;;;4.20;93.70;;;;;;5025325;28;20419;-84
2021/04/07 10:33:08;;;;;;;4.10;1.00;;;3.70;95.80;;;;;;5036269;28;20029;-84
2021/04/07 10:35:39;;;;;;;3.57;1.07;;;3.40;97.00;;;;;;5031407;28;20029;-83
2021/04/07 10:38:10;;;;;;;3.40;1.00;;;3.30;98.50;;;;;;5037584;28;20081;-85
2021/04/07 10:40:39;;;;;;;5.30;1.27;;;3.30;99.30;;;;;;5041783;28;20033;-84
2021/04/07 10:43:11;;;;;;;5.40;1.30;;;3.40;99.90;;;;;;5030509;28;20100;-85
2021/04/07 10:45:37;;;;;;;6.70;1.53;;;3.30;99.90;;;;;;5030010;28;20469;-84
2021/04/07 10:48:03;;;;;;;4.20;1.03;;;3.10;99.90;;;;;;5036357;28;20045;-85
2021/04/07 10:50:30;;;;;;;4.97;1.47;;;3.10;99.90;;;;;;5037512;28;20022;-85
2021/04/07 10:52:56;;;;;;;5.80;1.10;;;3.00;99.90;;;;;;5037633;28;20441;-84
2021/04/07 10:55:25;;;;;;;6.57;1.00;;;3.40;99.90;;;;;;5037412;28;20041;-85
2021/04/07 10:57:57;;;;;;;2.97;1.00;;;3.60;99.90;;;;;;5020303;28;20033;-85
2021/04/07 11:00:37;;;;;;;3.90;1.00;;;3.70;98.10;;;;;;5034104;28;20075;-84
2021/04/07 11:03:05;;;;;;;3.20;0.80;;;3.80;97.70;;;;;;5045262;28;20029;-84
2021/04/07 11:05:44;;;;;;;3.53;1.03;;;3.80;96.60;;;;;;5036931;28;20041;-83
2021/04/07 11:08:13;;;;;;;3.20;0.70;;;4.30;95.60;;;;;;5033132;28;20040;-84
2021/04/07 11:10:47;;;;;;;5.70;1.07;;;4.30;94.60;;;;;;5033780;28;20025;-83
2021/04/07 11:13:14;;;;;;;3.27;0.60;;;4.60;92.60;;;;;;5035791;28;20417;-83
2021/04/07 11:15:41;;;;;;;5.50;0.80;;;4.70;90.90;;;;;;5055920;28;20056;-84
2021/04/07 11:18:07;;;;;;;1.93;0.53;;;4.80;90.40;;;;;;5024411;28;20036;-84
2021/04/07 11:20:36;;;;;;;3.90;0.90;;;4.70;90.20;;;;;;5038973;28;20025;-88
2021/04/07 11:23:07;;;;;;;2.47;0.60;;;4.90;90.50;;;;;;5031495;28;20029;-85
2021/04/07 11:25:33;;;;;;;4.03;0.63;;;4.70;88.70;;;;;;5031590;28;20057;-85
2021/04/07 11:28:00;;;;;;;4.73;1.03;;;4.70;87.80;;;;;;5028238;28;20021;-85
2021/04/07 11:30:28;;;;;;;4.77;0.80;;;4.60;87.60;;;;;;5032996;28;20024;-86
2021/04/07 11:32:59;;;;;;;3.00;0.70;;;4.80;87.80;;;;;;5025299;28;20097;-86
2021/04/07 11:35:43;;;;;;;10.73;0.93;;;5.00;86.30;;;;;;5033173;28;20036;-87
2021/04/07 11:38:10;;;;;;;1.97;0.70;;;5.00;86.00;;;;;;5033780;28;20037;-85
2021/04/07 11:43:20;;;;;;;3.60;0.87;;;5.40;84.20;;;;;;5035523;28;20473;-85
2021/04/07 11:45:48;;;;;;;3.70;0.90;;;5.50;82.10;;;;;;5029711;28;20605;-84
2021/04/07 11:48:14;;;;;;;2.30;0.70;;;5.80;79.90;;;;;;5033465;28;20487;-86
2021/04/07 11:50:39;;;;;;;2.60;0.70;;;5.80;75.90;;;;;;5038154;28;20085;-86
2021/04/07 11:53:05;;;;;;;5.87;1.00;;;5.50;76.70;;;;;;5037415;28;20044;-86
2021/04/07 11:55:30;;;;;;;3.63;0.90;;;5.80;78.80;;;;;;5038177;28;20367;-86
2021/04/07 11:58:03;;;;;;;5.97;1.53;;;5.30;75.60;;;;;;5033900;28;20045;-88
2021/04/07 12:00:29;;;;;;;;;;;5.20;77.30;;;;;;5052828;28;20053;-87
2021/04/07 12:02:56;;;;;;;3.60;0.70;;;5.30;77.80;;;;;;5054903;28;19977;-90
2021/04/07 12:05:25;;;;;;;1.93;0.60;;;5.20;76.30;;;;;;5050652;28;20029;-88
2021/04/07 12:07:52;;;;;;;3.20;0.80;;;5.10;77.00;;;;;;5044592;28;20029;-88
2021/04/07 12:10:22;;;;;;;2.97;0.70;;;5.00;76.10;;;;;;5039740;28;20014;-87
2021/04/07 12:12:49;;;;;;;1.60;0.60;;;5.00;75.70;;;;;;5031180;28;20030;-87
2021/04/07 12:15:15;;;;;;;2.50;0.90;;;4.90;75.60;;;;;;5053306;28;20025;-88
2021/04/07 12:17:42;;;;;;;3.00;0.80;;;4.70;75.30;;;;;;5041564;28;20052;-86
2021/04/07 12:20:08;;;;;;;5.17;1.00;;;4.60;75.30;;;;;;5039759;28;20022;-87
2021/04/07 12:22:34;;;;;;;3.57;0.80;;;4.40;77.20;;;;;;5038299;28;20025;-88
2021/04/07 12:25:00;;;;;;;4.30;0.70;;;4.40;79.50;;;;;;5040198;28;20029;-86
2021/04/07 12:27:26;;;;;;;2.57;0.57;;;4.40;77.70;;;;;;5035319;28;20112;-87
2021/04/07 12:29:57;;;;;;;2.77;0.70;;;4.50;78.10;;;;;;5033443;28;20021;-87
2021/04/07 12:32:22;;;;;;;10.87;1.57;;;4.90;78.70;;;;;;5039291;28;20029;-87
2021/04/07 12:34:51;;;;;;;4.57;0.97;;;4.70;79.90;;;;;;5046690;28;20040;-84
2021/04/07 12:37:24;;;;;;;3.10;0.60;;;4.70;80.00;;;;;;5049767;28;20040;-86
2021/04/07 12:39:49;;;;;;;3.73;0.90;;;4.70;79.50;;;;;;5039759;28;20037;-86
2021/04/07 12:42:16;;;;;;;5.53;0.77;;;4.70;79.50;;;;;;5039248;28;20086;-86
2021/04/07 12:44:42;;;;;;;3.57;0.67;;;4.70;82.50;;;;;;5045166;28;20029;-86
2021/04/07 12:47:07;;;;;;;2.33;0.80;;;4.60;83.10;;;;;;5044959;28;20022;-87
2021/04/07 12:49:33;;;;;;;2.97;0.60;;;4.80;82.00;;;;;;5043641;28;20061;-86
2021/04/07 12:51:59;;;;;;;2.37;0.70;;;4.70;82.00;;;;;;5040294;28;20081;-86
2021/04/07 12:54:25;;;;;;;4.63;0.57;;;4.70;81.60;;;;;;5039412;28;20025;-86
2021/04/07 12:56:50;;;;;;;3.07;0.80;;;4.80;81.70;;;;;;5046355;28;20017;-87
2021/04/07 12:59:17;;;;;;;7.07;0.83;;;4.70;80.10;;;;;;5057261;28;20267;-84
2021/04/07 13:01:44;;;;;;;3.03;0.70;;;4.90;80.40;;;;;;5041421;28;20116;-86
2021/04/07 13:04:09;;;;;;;6.20;0.83;;;4.60;81.70;;;;;;5038787;28;20033;-86
2021/04/07 13:06:35;;;;;;;6.17;0.83;;;4.40;82.50;;;;;;5039413;28;20028;-86
2021/04/07 13:09:01;;;;;;;1.23;0.43;;;4.40;83.70;;;;;;5033191;28;20028;-86
2021/04/07 13:11:26;;;;;;;4.80;1.00;;;4.00;83.40;;;;;;5046772;28;20519;-86
2021/04/07 13:13:53;;;;;;;5.87;1.00;;;4.00;84.30;;;;;;5035449;28;20423;-85
2021/04/07 13:16:19;;;;;;;3.63;0.70;;;4.00;86.60;;;;;;5029117;28;20625;-86
2021/04/07 13:18:45;;;;;;;4.37;1.13;;;3.90;84.60;;;;;;5039783;28;20018;-86
2021/04/07 13:21:12;;;;;;;2.97;0.90;;;4.00;85.80;;;;;;5043339;28;20025;-86
2021/04/07 13:23:39;;;;;;;4.37;1.00;;;4.00;86.60;;;;;;5039032;28;20021;-87
2021/04/07 13:26:05;;;;;;;4.40;0.97;;;4.00;87.80;;;;;;5042267;28;20129;-86
2021/04/07 13:28:39;;;;;;;4.87;0.97;;;4.00;87.90;;;;;;5042237;28;20044;-86
2021/04/07 13:31:05;;;;;;;6.07;1.20;;;4.00;89.30;;;;;;5035455;28;20115;-86
2021/04/07 13:33:45;;;;;;;3.90;1.10;;;4.10;90.20;;;;;;5027394;28;20112;-89
2021/04/07 13:36:16;;;;;;;3.67;1.07;;;4.20;89.70;;;;;;5036021;28;20087;-86
2021/04/07 13:38:55;;;;;;;5.97;1.83;;;3.90;90.40;;;;;;5039544;28;20033;-87